Time;durP1;ratioP1;P1;durP2;ratioP2;P2;SDS_P1;SDS_P2;PMS_P1;PMS_P2;Temp;Humidity;BMP_temperature;BMP_pressure;BME280_temperature;BME280_humidity;BME280_pressure;Samples;Min_cycle;Max_cycle;Signal;HPM_P1;HPM_P2
2021/06/01 00:02:21;;;;;;;16.02;11.77;;;14.40;79.10;;;;;;5110044;28;20040;-54
2021/06/01 00:04:47;;;;;;;18.98;11.57;;;14.30;79.40;;;;;;5113863;28;20077;-53
2021/06/01 00:07:14;;;;;;;17.42;11.98;;;14.30;79.80;;;;;;5110990;28;20415;-53
2021/06/01 00:09:39;;;;;;;16.77;11.93;;;14.30;80.30;;;;;;5101313;28;20043;-54
2021/06/01 00:12:05;;;;;;;16.35;11.18;;;14.20;79.80;;;;;;5111231;28;20036;-52
2021/06/01 00:14:32;;;;;;;17.40;11.80;;;14.10;80.50;;;;;;5109046;28;20096;-53
2021/06/01 00:16:58;;;;;;;15.50;11.32;;;14.10;80.50;;;;;;5101857;28;20071;-50
2021/06/01 00:19:23;;;;;;;17.67;11.45;;;14.10;81.10;;;;;;5106856;28;20517;-50
2021/06/01 00:21:50;;;;;;;20.45;12.07;;;14.10;81.10;;;;;;5098523;28;20035;-52
2021/06/01 00:24:15;;;;;;;19.90;12.38;;;14.10;81.40;;;;;;5107271;28;20044;-49
2021/06/01 00:26:42;;;;;;;16.20;11.40;;;14.00;81.70;;;;;;5112795;28;20155;-51
2021/06/01 00:29:09;;;;;;;17.90;12.40;;;13.90;82.00;;;;;;5111393;28;20035;-50
2021/06/01 00:31:35;;;;;;;17.65;12.55;;;13.90;82.50;;;;;;5112564;28;20074;-50
2021/06/01 00:34:00;;;;;;;17.65;12.27;;;13.90;82.70;;;;;;5111591;28;20079;-50
2021/06/01 00:36:26;;;;;;;17.50;11.95;;;13.90;82.80;;;;;;5113296;28;20423;-50
2021/06/01 00:38:52;;;;;;;20.25;12.25;;;13.80;82.70;;;;;;5109550;28;20065;-53
2021/06/01 00:41:18;;;;;;;18.85;13.20;;;13.90;83.60;;;;;;5101780;28;20036;-51
2021/06/01 00:43:44;;;;;;;21.02;13.57;;;13.80;83.20;;;;;;5102842;28;20063;-50
2021/06/01 00:46:09;;;;;;;21.23;13.10;;;13.70;83.60;;;;;;5106593;28;20039;-51
2021/06/01 00:48:35;;;;;;;19.98;13.18;;;13.70;83.90;;;;;;5110831;28;20472;-52
2021/06/01 00:51:01;;;;;;;23.02;12.75;;;13.70;84.00;;;;;;5100838;28;20140;-50
2021/06/01 00:53:27;;;;;;;19.08;13.10;;;13.70;83.70;;;;;;5102992;28;20555;-50
2021/06/01 00:55:54;;;;;;;17.27;12.75;;;13.70;84.30;;;;;;5096404;28;20048;-52
2021/06/01 00:58:20;;;;;;;19.25;11.80;;;13.60;83.90;;;;;;5091942;28;20046;-52
2021/06/01 01:01:05;;;;;;;21.17;13.25;;;13.60;84.40;;;;;;5108887;28;20047;-53
2021/06/01 01:03:33;;;;;;;20.98;13.38;;;13.60;84.70;;;;;;5106620;28;20576;-54
2021/06/01 01:06:05;;;;;;;20.20;13.80;;;13.60;84.60;;;;;;5099453;28;20562;-50
2021/06/01 01:08:54;;;;;;;18.83;13.13;;;13.60;85.00;;;;;;5101212;28;20089;-50
2021/06/01 01:11:35;;;;;;;20.10;13.02;;;13.50;84.90;;;;;;5083307;28;20135;-53
2021/06/01 01:14:09;;;;;;;18.70;13.52;;;13.50;85.50;;;;;;5101109;28;20040;-53
2021/06/01 01:16:37;;;;;;;21.95;13.82;;;13.50;85.20;;;;;;5110419;28;20108;-55
2021/06/01 01:19:12;;;;;;;20.90;13.55;;;13.50;85.60;;;;;;5106775;28;20080;-53
2021/06/01 01:21:49;;;;;;;18.90;13.48;;;13.50;86.50;;;;;;5091474;28;20046;-55
2021/06/01 01:24:26;;;;;;;19.60;13.40;;;13.40;86.00;;;;;;5103332;28;20058;-55
2021/06/01 01:27:14;;;;;;;19.10;13.68;;;13.30;85.90;;;;;;5098756;28;20527;-52
2021/06/01 01:29:41;;;;;;;23.40;12.75;;;13.20;86.40;;;;;;5109447;28;20039;-52
2021/06/01 01:32:14;;;;;;;20.80;14.38;;;13.30;86.60;;;;;;5109309;28;20461;-51
2021/06/01 01:34:41;;;;;;;25.38;14.57;;;13.30;86.60;;;;;;5111029;28;20563;-54
2021/06/01 01:37:07;;;;;;;18.60;14.07;;;13.30;86.60;;;;;;5110415;28;20505;-54
2021/06/01 01:39:39;;;;;;;22.48;13.80;;;13.20;86.60;;;;;;5112227;28;20070;-51
2021/06/01 01:42:06;;;;;;;21.90;14.02;;;13.20;86.70;;;;;;5110782;28;20116;-52
2021/06/01 01:44:37;;;;;;;22.92;14.20;;;13.20;86.90;;;;;;5110529;28;20044;-52
2021/06/01 01:48:59;;;;;;;19.30;13.75;;;13.10;86.70;;;;;;5105455;28;20040;-52
2021/06/01 01:49:57;;;;;;;20.27;13.82;;;13.10;87.30;;;;;;5108427;28;20050;-53
2021/06/01 01:52:23;;;;;;;19.95;12.82;;;13.10;87.30;;;;;;5102129;28;20585;-54
2021/06/01 01:54:50;;;;;;;21.38;14.05;;;13.20;87.20;;;;;;5107163;28;20047;-55
2021/06/01 01:57:16;;;;;;;24.10;14.95;;;13.20;86.60;;;;;;5095961;28;20385;-54
2021/06/01 01:59:42;;;;;;;20.95;13.50;;;13.10;87.00;;;;;;5111301;28;20051;-55
2021/06/01 02:02:13;;;;;;;23.95;15.20;;;13.10;87.40;;;;;;5107193;28;20502;-55
2021/06/01 02:04:39;;;;;;;20.15;14.43;;;13.10;87.40;;;;;;5102129;28;20077;-55
2021/06/01 02:07:05;;;;;;;20.58;13.68;;;13.00;87.50;;;;;;5095353;28;20028;-55
2021/06/01 02:09:31;;;;;;;24.05;15.30;;;12.90;87.60;;;;;;5105223;28;20032;-55
2021/06/01 02:11:56;;;;;;;22.23;13.63;;;12.80;88.30;;;;;;5107347;28;20047;-55
2021/06/01 02:14:23;;;;;;;21.95;14.00;;;12.80;87.90;;;;;;5110736;28;20058;-53
2021/06/01 02:16:49;;;;;;;22.60;13.98;;;12.70;88.00;;;;;;5110586;28;20063;-50
2021/06/01 02:19:17;;;;;;;23.33;14.45;;;12.70;88.00;;;;;;5109744;28;20184;-54
2021/06/01 02:24:44;;;;;;;20.55;14.05;;;12.60;87.90;;;;;;5110483;28;20055;-52
2021/06/01 02:27:24;;;;;;;22.63;13.57;;;12.70;87.80;;;;;;5104061;28;20039;-53
2021/06/01 02:30:09;;;;;;;22.30;14.05;;;12.70;87.70;;;;;;5110852;28;20484;-55
2021/06/01 02:32:46;;;;;;;22.95;14.35;;;12.70;87.90;;;;;;5106974;28;20035;-52
2021/06/01 02:35:13;;;;;;;22.02;14.43;;;12.60;88.00;;;;;;5109243;28;20045;-51
2021/06/01 02:37:42;;;;;;;20.83;14.07;;;12.50;88.60;;;;;;5101809;28;20074;-50
2021/06/01 02:40:10;;;;;;;22.10;14.85;;;12.50;89.10;;;;;;5105926;28;20046;-54
2021/06/01 02:42:39;;;;;;;23.67;14.63;;;12.50;89.10;;;;;;5100530;28;20051;-54
2021/06/01 02:45:06;;;;;;;26.17;15.40;;;12.50;88.70;;;;;;5109789;28;20491;-55
2021/06/01 02:47:32;;;;;;;22.85;15.00;;;12.40;89.20;;;;;;5108237;28;20506;-54
2021/06/01 02:49:59;;;;;;;21.13;13.98;;;12.30;89.20;;;;;;5110065;28;20039;-54
2021/06/01 02:52:25;;;;;;;22.73;14.38;;;12.30;89.50;;;;;;5105858;28;20035;-55
2021/06/01 02:54:51;;;;;;;26.58;14.27;;;12.40;89.20;;;;;;5095949;28;20111;-54
2021/06/01 02:57:19;;;;;;;21.15;13.40;;;12.40;89.10;;;;;;5108720;28;20039;-51
2021/06/01 02:59:46;;;;;;;21.70;14.45;;;12.30;89.10;;;;;;5100727;28;20043;-55
2021/06/01 03:02:12;;;;;;;23.40;14.15;;;12.50;88.50;;;;;;5090787;28;20063;-53
2021/06/01 03:04:49;;;;;;;22.45;13.88;;;12.40;88.40;;;;;;5108944;28;20364;-53
2021/06/01 03:07:15;;;;;;;23.65;14.68;;;12.30;88.60;;;;;;5080009;28;20488;-50
2021/06/01 03:09:41;;;;;;;18.73;13.88;;;12.20;88.90;;;;;;5107675;28;20067;-50
2021/06/01 03:12:08;;;;;;;21.05;14.02;;;12.30;88.60;;;;;;5101534;28;20070;-52
2021/06/01 03:14:34;;;;;;;19.38;13.65;;;12.30;88.20;;;;;;5106698;28;20073;-50
2021/06/01 03:16:59;;;;;;;22.17;14.13;;;12.30;88.10;;;;;;5110294;28;20039;-51
2021/06/01 03:19:25;;;;;;;21.55;14.13;;;12.30;87.90;;;;;;5104321;28;20036;-50
2021/06/01 03:21:51;;;;;;;20.13;13.65;;;12.20;88.10;;;;;;5108464;28;20085;-52
2021/06/01 03:24:16;;;;;;;19.10;13.45;;;12.20;88.30;;;;;;5098905;28;20032;-51
2021/06/01 03:26:43;;;;;;;18.77;13.40;;;12.20;88.60;;;;;;5108572;28;20051;-55
2021/06/01 03:29:08;;;;;;;20.60;13.45;;;12.20;88.10;;;;;;5103736;28;20038;-53
2021/06/01 03:31:34;;;;;;;19.52;13.48;;;12.20;88.60;;;;;;5105933;28;20058;-53
2021/06/01 03:34:00;;;;;;;20.30;13.93;;;12.20;88.00;;;;;;5102693;28;20138;-53
2021/06/01 03:36:25;;;;;;;19.52;13.75;;;12.20;88.30;;;;;;5106481;28;20040;-53
2021/06/01 03:38:52;;;;;;;23.10;14.43;;;12.20;88.40;;;;;;5102521;28;20027;-53
2021/06/01 03:41:18;;;;;;;18.75;12.68;;;12.20;87.90;;;;;;5106344;28;20126;-53
2021/06/01 03:43:44;;;;;;;18.38;13.32;;;12.20;88.10;;;;;;5104682;28;20156;-54
2021/06/01 03:46:10;;;;;;;18.38;13.13;;;12.00;88.40;;;;;;5105652;28;20151;-54
2021/06/01 03:48:35;;;;;;;28.95;13.68;;;12.10;88.40;;;;;;5101860;28;20048;-54
2021/06/01 03:51:01;;;;;;;22.30;14.40;;;12.20;87.60;;;;;;5107329;28;20038;-53
2021/06/01 03:53:28;;;;;;;20.40;13.60;;;12.30;87.40;;;;;;5104599;28;20035;-53
2021/06/01 03:55:54;;;;;;;20.98;13.30;;;12.20;87.40;;;;;;5085812;28;20126;-54
2021/06/01 03:58:20;;;;;;;21.30;13.07;;;12.20;87.50;;;;;;5087849;28;20135;-51
2021/06/01 04:00:46;;;;;;;19.60;12.77;;;12.30;87.30;;;;;;5104453;28;20471;-51
2021/06/01 04:03:12;;;;;;;18.02;13.07;;;12.30;86.70;;;;;;5074477;28;20048;-56
2021/06/01 04:05:38;;;;;;;22.40;13.10;;;12.40;86.40;;;;;;5108689;28;20488;-53
2021/06/01 04:08:05;;;;;;;19.73;12.55;;;12.40;86.20;;;;;;5105056;28;20039;-50
2021/06/01 04:10:32;;;;;;;21.05;12.63;;;12.40;85.90;;;;;;5096631;28;20059;-52
2021/06/01 04:12:58;;;;;;;20.42;13.20;;;12.50;85.60;;;;;;5118995;27;20028;-54
2021/06/01 04:15:24;;;;;;;17.70;12.13;;;12.40;85.90;;;;;;5111038;28;20096;-52
2021/06/01 04:17:49;;;;;;;19.55;11.82;;;12.50;85.10;;;;;;5098943;28;20047;-52
2021/06/01 04:20:15;;;;;;;19.65;11.40;;;12.50;84.90;;;;;;5108199;28;20043;-54
2021/06/01 04:22:41;;;;;;;18.85;11.98;;;12.50;84.70;;;;;;5099082;28;20115;-54
2021/06/01 04:25:07;;;;;;;18.02;12.02;;;12.50;84.60;;;;;;5108052;28;20042;-54
2021/06/01 04:27:34;;;;;;;18.63;12.02;;;12.50;84.80;;;;;;5097502;28;20134;-54
2021/06/01 04:30:00;;;;;;;18.15;11.55;;;12.50;84.80;;;;;;5100035;28;20123;-54
2021/06/01 04:32:26;;;;;;;17.85;12.43;;;12.50;84.20;;;;;;5100509;28;20127;-52
2021/06/01 04:34:51;;;;;;;17.83;11.80;;;12.50;84.40;;;;;;5106453;28;20039;-54
2021/06/01 04:37:17;;;;;;;17.40;11.27;;;12.50;84.50;;;;;;5110786;28;20491;-54
2021/06/01 04:39:43;;;;;;;17.40;11.40;;;12.60;84.40;;;;;;5112910;28;20084;-54
2021/06/01 04:42:10;;;;;;;17.92;10.80;;;12.60;83.80;;;;;;5106878;28;20040;-51
2021/06/01 04:44:35;;;;;;;17.98;11.50;;;12.70;83.10;;;;;;5093515;28;20547;-50
2021/06/01 04:47:01;;;;;;;17.55;11.35;;;12.70;82.60;;;;;;5107960;28;20548;-51
2021/06/01 04:49:27;;;;;;;18.30;11.23;;;12.70;82.90;;;;;;5111960;28;20058;-54
2021/06/01 04:51:53;;;;;;;18.00;11.02;;;12.80;83.00;;;;;;5108185;28;20044;-54
2021/06/01 04:54:18;;;;;;;18.90;11.15;;;12.80;83.30;;;;;;5104144;28;20449;-50
2021/06/01 04:56:44;;;;;;;15.57;10.65;;;12.80;83.70;;;;;;5103563;28;20048;-54
2021/06/01 04:59:11;;;;;;;17.45;9.85;;;12.90;82.40;;;;;;5105921;28;20142;-53
2021/06/01 05:01:38;;;;;;;18.45;10.13;;;13.10;80.70;;;;;;5106783;28;20047;-53
2021/06/01 05:04:04;;;;;;;12.00;9.35;;;13.30;80.50;;;;;;5111255;28;20073;-54
2021/06/01 05:06:30;;;;;;;16.98;9.63;;;13.60;78.60;;;;;;5103473;28;20480;-52
2021/06/01 05:08:55;;;;;;;15.80;10.02;;;13.90;78.10;;;;;;5096393;28;20044;-55
2021/06/01 05:11:21;;;;;;;14.02;9.68;;;14.10;77.20;;;;;;5096620;28;20035;-55
2021/06/01 05:13:48;;;;;;;11.90;9.02;;;14.40;75.50;;;;;;5102848;28;20118;-54
2021/06/01 05:16:14;;;;;;;14.65;8.68;;;14.70;74.00;;;;;;5111354;28;20438;-55
2021/06/01 05:18:41;;;;;;;12.40;8.50;;;14.90;73.10;;;;;;5092567;28;20511;-54
2021/06/01 05:21:07;;;;;;;13.40;8.93;;;15.20;72.90;;;;;;5106969;28;20051;-54
2021/06/01 05:23:33;;;;;;;15.60;8.30;;;15.40;70.90;;;;;;5102229;28;20407;-56
2021/06/01 05:26:03;;;;;;;14.73;8.82;;;15.70;69.10;;;;;;5087513;28;20048;-56
2021/06/01 05:28:30;;;;;;;14.25;8.40;;;15.90;70.40;;;;;;5091068;28;20052;-54
2021/06/01 05:31:06;;;;;;;13.95;8.50;;;16.10;70.10;;;;;;5103321;28;20495;-53
2021/06/01 05:33:34;;;;;;;12.48;8.05;;;16.30;68.90;;;;;;5088313;28;20044;-52
2021/06/01 05:36:01;;;;;;;13.40;7.85;;;16.50;66.50;;;;;;5092326;28;20040;-54
2021/06/01 05:38:29;;;;;;;14.82;7.93;;;16.60;66.80;;;;;;5102444;28;20054;-54
2021/06/01 05:40:56;;;;;;;14.93;7.93;;;16.80;66.10;;;;;;5102667;28;20434;-50
2021/06/01 05:43:22;;;;;;;12.57;7.88;;;16.90;65.40;;;;;;5107626;27;20464;-52
2021/06/01 05:45:48;;;;;;;13.25;7.80;;;17.10;64.50;;;;;;5112931;28;20110;-53
2021/06/01 05:48:14;;;;;;;10.65;7.65;;;17.20;63.30;;;;;;5113074;28;20499;-54
2021/06/01 05:50:41;;;;;;;10.75;7.90;;;17.30;64.10;;;;;;5100704;28;20109;-56
2021/06/01 05:53:11;;;;;;;10.10;6.93;;;17.40;63.80;;;;;;5077629;28;20499;-56
2021/06/01 05:55:37;;;;;;;9.52;7.40;;;17.60;61.00;;;;;;5112434;28;20126;-56
2021/06/01 05:58:04;;;;;;;14.20;7.55;;;18.10;60.60;;;;;;5111673;28;20052;-56
2021/06/01 06:00:31;;;;;;;12.77;6.68;;;18.20;60.40;;;;;;5111683;28;20554;-53
2021/06/01 06:03:02;;;;;;;10.20;6.68;;;17.90;59.70;;;;;;5110140;28;20074;-55
2021/06/01 06:05:28;;;;;;;18.95;8.00;;;17.70;60.10;;;;;;5110096;28;20039;-53
2021/06/01 06:07:54;;;;;;;11.50;7.25;;;17.50;60.60;;;;;;5109373;28;20522;-53
2021/06/01 06:10:19;;;;;;;9.60;7.13;;;17.30;61.50;;;;;;5102820;28;20083;-50
2021/06/01 06:12:46;;;;;;;17.00;7.80;;;17.20;61.80;;;;;;5106859;28;20066;-54
2021/06/01 06:15:15;;;;;;;12.43;7.85;;;17.10;62.10;;;;;;5108766;28;20040;-53
2021/06/01 06:17:56;;;;;;;13.52;7.05;;;17.00;62.40;;;;;;5103471;28;20047;-56
2021/06/01 06:20:21;;;;;;;12.20;7.53;;;17.00;62.40;;;;;;5109441;28;20043;-56
2021/06/01 06:22:47;;;;;;;10.77;7.03;;;17.00;62.60;;;;;;5109756;28;20054;-55
2021/06/01 06:25:14;;;;;;;8.60;6.88;;;16.90;62.80;;;;;;5097898;28;20403;-56
2021/06/01 06:27:41;;;;;;;10.27;6.72;;;16.90;62.80;;;;;;5110868;28;20061;-56
2021/06/01 06:30:09;;;;;;;12.73;7.20;;;16.90;63.90;;;;;;5108430;28;20048;-55
2021/06/01 06:32:36;;;;;;;11.93;7.10;;;17.00;64.60;;;;;;5111406;28;20499;-56
2021/06/01 06:35:03;;;;;;;10.07;6.63;;;17.00;64.00;;;;;;5110070;28;20048;-54
2021/06/01 06:37:31;;;;;;;11.32;6.80;;;17.00;63.10;;;;;;5109709;28;20135;-52
2021/06/01 06:39:57;;;;;;;9.35;6.50;;;17.00;63.70;;;;;;5093111;28;20052;-50
2021/06/01 06:42:26;;;;;;;12.02;6.95;;;17.10;63.70;;;;;;5110045;28;20138;-56
2021/06/01 06:44:53;;;;;;;8.82;6.72;;;17.10;62.10;;;;;;5065782;28;20384;-55
2021/06/01 06:47:27;;;;;;;12.27;6.80;;;17.20;62.30;;;;;;5113559;28;20042;-56
2021/06/01 06:49:55;;;;;;;9.50;6.68;;;17.30;63.30;;;;;;5113642;28;20054;-51
2021/06/01 06:52:22;;;;;;;11.27;6.63;;;17.30;63.60;;;;;;5093358;28;20066;-53
2021/06/01 06:54:48;;;;;;;9.02;6.43;;;17.30;63.40;;;;;;5112436;28;20043;-52
2021/06/01 06:57:14;;;;;;;9.60;6.32;;;17.40;62.50;;;;;;5113675;28;20039;-56
2021/06/01 06:59:41;;;;;;;10.15;6.25;;;17.50;62.70;;;;;;5111137;28;20048;-56
2021/06/01 07:02:07;;;;;;;10.02;6.30;;;17.70;62.80;;;;;;5110189;28;20127;-53
2021/06/01 07:04:32;;;;;;;8.20;5.93;;;17.80;62.30;;;;;;5112990;28;20044;-52
2021/06/01 07:07:00;;;;;;;9.70;6.05;;;18.10;60.70;;;;;;5111389;28;20035;-54
2021/06/01 07:09:31;;;;;;;10.27;5.57;;;18.20;60.30;;;;;;5110401;28;20089;-55
2021/06/01 07:11:56;;;;;;;8.07;5.40;;;18.40;58.20;;;;;;5111575;28;20377;-56
2021/06/01 07:14:22;;;;;;;7.78;5.18;;;18.60;59.00;;;;;;5108517;28;20051;-56
2021/06/01 07:16:48;;;;;;;6.47;4.95;;;18.80;59.80;;;;;;5111373;28;20067;-54
2021/06/01 07:19:15;;;;;;;9.30;5.38;;;19.00;59.00;;;;;;5111076;28;20692;-56
2021/06/01 07:21:41;;;;;;;7.05;5.30;;;19.20;55.90;;;;;;5111572;28;20123;-53
2021/06/01 07:24:10;;;;;;;8.75;4.88;;;19.30;55.80;;;;;;5110569;28;20136;-57
2021/06/01 07:26:38;;;;;;;8.23;4.80;;;19.50;55.70;;;;;;5090972;28;20512;-56
2021/06/01 07:29:11;;;;;;;8.40;5.30;;;19.60;54.60;;;;;;5107843;28;20047;-56
2021/06/01 07:32:00;;;;;;;11.40;4.82;;;19.70;54.80;;;;;;5107402;28;20076;-57
2021/06/01 07:34:26;;;;;;;7.03;4.50;;;19.90;52.80;;;;;;5110912;28;20490;-56
2021/06/01 07:36:52;;;;;;;8.85;5.05;;;19.90;52.70;;;;;;5110498;28;20126;-56
2021/06/01 07:39:20;;;;;;;9.77;5.05;;;20.00;51.90;;;;;;5107364;28;20039;-55
2021/06/01 07:41:46;;;;;;;8.32;4.50;;;20.10;51.90;;;;;;5107307;28;20556;-56
2021/06/01 07:44:12;;;;;;;8.25;4.88;;;20.20;51.00;;;;;;5105158;28;20036;-56
2021/06/01 07:46:38;;;;;;;8.60;5.03;;;20.20;51.00;;;;;;5111849;28;20044;-57
2021/06/01 07:49:04;;;;;;;6.93;4.38;;;20.30;52.10;;;;;;5092428;28;20046;-56
2021/06/01 07:51:31;;;;;;;10.52;4.88;;;20.40;53.20;;;;;;5111676;28;20122;-53
2021/06/01 07:54:03;;;;;;;5.97;4.53;;;20.50;52.10;;;;;;5104798;28;20154;-56
2021/06/01 07:56:35;;;;;;;9.77;4.70;;;20.60;51.00;;;;;;5097152;28;20043;-55
2021/06/01 07:59:21;;;;;;;6.50;4.40;;;20.70;51.60;;;;;;5082956;28;20064;-55
2021/06/01 08:01:49;;;;;;;8.43;5.13;;;20.80;51.70;;;;;;5094696;28;20114;-55
2021/06/01 08:04:15;;;;;;;6.43;4.40;;;20.90;48.70;;;;;;5107260;28;20107;-55
2021/06/01 08:06:41;;;;;;;8.15;4.55;;;21.00;48.40;;;;;;5098824;28;20052;-57
2021/06/01 08:09:07;;;;;;;7.53;4.97;;;21.00;49.10;;;;;;5100644;28;20040;-55
2021/06/01 08:11:45;;;;;;;6.68;4.28;;;21.10;47.60;;;;;;5101173;28;20046;-55
2021/06/01 08:14:11;;;;;;;7.38;4.95;;;21.10;49.50;;;;;;5084472;28;20414;-53
2021/06/01 08:16:50;;;;;;;6.80;4.07;;;21.10;48.20;;;;;;5100934;28;20043;-55
2021/06/01 08:24:15;;;;;;;;;;;21.40;47.90;;;;;;5101634;28;20036;-54
2021/06/01 08:26:41;;;;;;;7.32;3.60;;;21.50;46.00;;;;;;5103891;28;19920;-49
2021/06/01 08:29:08;;;;;;;6.53;3.65;;;21.50;45.90;;;;;;5101168;28;20114;-54
2021/06/01 08:31:33;;;;;;;7.25;3.50;;;21.60;43.40;;;;;;5103509;28;20056;-56
2021/06/01 08:34:00;;;;;;;6.90;3.47;;;21.60;43.40;;;;;;5102252;28;20073;-50
2021/06/01 08:36:27;;;;;;;6.70;3.20;;;21.70;45.00;;;;;;5097666;28;20063;-55
2021/06/01 08:38:53;;;;;;;8.10;3.53;;;21.80;43.90;;;;;;5104392;28;20126;-53
2021/06/01 08:41:19;;;;;;;10.13;3.20;;;22.00;44.30;;;;;;5105192;28;20067;-51
2021/06/01 08:43:48;;;;;;;5.68;3.25;;;22.10;41.20;;;;;;5110083;28;20071;-50
2021/06/01 08:46:14;;;;;;;7.82;3.22;;;22.00;41.90;;;;;;5105900;28;20093;-55
2021/06/01 08:48:40;;;;;;;7.63;3.35;;;22.00;42.20;;;;;;5099213;28;20047;-53
2021/06/01 08:51:09;;;;;;;6.43;3.25;;;22.00;43.20;;;;;;5108025;28;20050;-53
2021/06/01 08:53:35;;;;;;;5.78;3.70;;;22.10;42.40;;;;;;5098872;28;20110;-53
2021/06/01 08:56:00;;;;;;;8.90;3.50;;;22.10;42.50;;;;;;5093428;28;20602;-53
2021/06/01 08:58:26;;;;;;;6.10;3.25;;;22.10;42.40;;;;;;5099196;28;20074;-50
2021/06/01 09:01:02;;;;;;;5.40;3.00;;;22.10;39.30;;;;;;5103050;28;20031;-52
2021/06/01 09:03:28;;;;;;;5.57;2.90;;;22.20;37.50;;;;;;5107495;28;20039;-55
2021/06/01 09:06:22;;;;;;;6.10;2.70;;;22.20;40.70;;;;;;5098425;28;20043;-55
2021/06/01 09:22:36;;;;;;;5.05;3.03;;;22.60;37.70;;;;;;5105858;28;20055;-56
2021/06/01 09:25:18;;;;;;;6.18;2.80;;;22.60;38.40;;;;;;5096034;28;20047;-56
2021/06/01 09:27:47;;;;;;;4.15;2.70;;;22.60;38.50;;;;;;5088438;28;20048;-56
2021/06/01 09:30:36;;;;;;;5.35;2.15;;;22.60;37.80;;;;;;5094231;28;20315;-56
2021/06/01 09:33:21;;;;;;;3.95;2.45;;;22.70;36.80;;;;;;5096507;28;20070;-52
2021/06/01 09:35:53;;;;;;;5.80;2.53;;;22.80;38.50;;;;;;5100166;28;20052;-55
2021/06/01 09:38:30;;;;;;;4.32;2.60;;;22.80;36.50;;;;;;5098302;22;20044;-55
2021/06/01 09:41:08;;;;;;;4.40;2.60;;;22.90;35.60;;;;;;5062313;28;20133;-55
2021/06/01 09:43:48;;;;;;;6.78;2.47;;;22.90;37.20;;;;;;5081308;28;20070;-56
2021/06/01 09:46:29;;;;;;;5.38;2.65;;;22.90;37.80;;;;;;5024476;28;20040;-56
2021/06/01 09:49:16;;;;;;;3.47;2.40;;;22.90;37.00;;;;;;5093942;28;20044;-55
2021/06/01 09:52:03;;;;;;;7.88;2.60;;;23.00;36.50;;;;;;5072714;28;20519;-56
2021/06/01 09:54:35;;;;;;;2.63;2.25;;;23.00;36.90;;;;;;5087551;28;20043;-53
2021/06/01 09:57:14;;;;;;;5.32;2.53;;;23.20;37.80;;;;;;5072981;28;20047;-55
2021/06/01 09:59:42;;;;;;;5.43;2.55;;;23.20;37.40;;;;;;5085174;28;20044;-53
2021/06/01 10:02:31;;;;;;;3.95;2.20;;;23.40;34.20;;;;;;5062331;28;20105;-57
2021/06/01 10:05:28;;;;;;;4.47;2.47;;;23.40;32.90;;;;;;5089568;28;20363;-57
2021/06/01 10:07:56;;;;;;;4.80;2.30;;;23.40;33.10;;;;;;5099320;28;20047;-57
2021/06/01 10:10:29;;;;;;;3.28;2.05;;;23.30;34.10;;;;;;5096895;28;20040;-53
2021/06/01 10:13:06;;;;;;;3.45;2.35;;;23.30;35.10;;;;;;5051385;28;20155;-54
2021/06/01 10:15:34;;;;;;;6.10;2.63;;;23.40;34.30;;;;;;5065462;28;20047;-54
2021/06/01 10:18:12;;;;;;;6.15;2.60;;;23.40;34.30;;;;;;5046648;28;20044;-54
2021/06/01 10:20:40;;;;;;;4.10;2.42;;;23.30;35.00;;;;;;5071629;28;20048;-55
2021/06/01 10:23:08;;;;;;;3.55;2.53;;;23.30;36.50;;;;;;5095241;28;20560;-56
2021/06/01 10:25:37;;;;;;;5.45;2.42;;;23.50;35.10;;;;;;5092819;28;20036;-56
2021/06/01 10:28:05;;;;;;;4.82;2.50;;;23.50;33.40;;;;;;5076655;28;20249;-56
2021/06/01 10:30:33;;;;;;;3.67;2.10;;;23.50;33.40;;;;;;5094034;28;20047;-55
2021/06/01 10:33:03;;;;;;;6.32;2.40;;;23.60;34.30;;;;;;5076750;28;20047;-55
2021/06/01 10:35:40;;;;;;;5.25;2.33;;;23.60;33.10;;;;;;5072746;28;20561;-56
2021/06/01 10:44:16;;;;;;;4.78;2.20;;;23.60;36.20;;;;;;5092349;28;20110;-57
2021/06/01 10:52:13;;;;;;;3.22;2.25;;;24.10;32.60;;;;;;5094848;28;20090;-56
2021/06/01 10:54:39;;;;;;;4.32;2.05;;;24.10;33.00;;;;;;5093432;28;20392;-57
2021/06/01 10:57:11;;;;;;;6.32;1.90;;;24.20;34.30;;;;;;5094884;28;20040;-56
2021/06/01 11:02:30;;;;;;;7.35;2.28;;;24.10;33.40;;;;;;5093890;28;20499;-57
2021/06/01 11:05:10;;;;;;;4.78;2.10;;;24.20;32.50;;;;;;5092578;28;20040;-56
2021/06/01 11:08:02;;;;;;;5.05;2.00;;;24.20;34.10;;;;;;5082952;28;20040;-56
2021/06/01 11:10:40;;;;;;;4.03;1.80;;;24.40;35.30;;;;;;5065088;28;20044;-56
2021/06/01 11:13:08;;;;;;;8.18;2.30;;;24.50;32.40;;;;;;5081121;28;20407;-57
2021/06/01 11:15:38;;;;;;;2.70;1.80;;;24.40;31.10;;;;;;5085238;28;20051;-57
2021/06/01 11:18:21;;;;;;;2.22;1.67;;;24.40;31.90;;;;;;5087626;28;20036;-52
2021/06/01 11:21:18;;;;;;;2.30;1.85;;;24.40;31.30;;;;;;5088520;28;20044;-52
2021/06/01 11:35:31;;;;;;;3.63;1.98;;;24.20;30.50;;;;;;5067124;28;20484;-56
2021/06/01 11:40:37;;;;;;;5.80;2.15;;;24.20;31.40;;;;;;5080445;28;20044;-55
2021/06/01 11:43:15;;;;;;;3.10;1.60;;;24.30;30.50;;;;;;5076982;28;20040;-54
2021/06/01 11:45:47;;;;;;;6.85;1.80;;;24.40;29.90;;;;;;5082629;28;20043;-56
2021/06/01 11:51:15;;;;;;;3.25;1.90;;;24.40;31.30;;;;;;5078920;28;20040;-52
2021/06/01 11:54:02;;;;;;;2.88;1.75;;;24.50;30.40;;;;;;5062021;28;20036;-55
2021/06/01 11:57:08;;;;;;;4.28;1.80;;;24.50;31.50;;;;;;5078139;28;20048;-56
2021/06/01 12:02:41;;;;;;;4.10;1.77;;;24.60;29.30;;;;;;5065442;28;20055;-52
2021/06/01 12:19:00;;;;;;;3.55;1.60;;;24.90;29.00;;;;;;5084043;28;20055;-56
2021/06/01 12:21:32;;;;;;;3.03;1.80;;;24.90;29.50;;;;;;5044947;28;20114;-55
2021/06/01 12:24:04;;;;;;;2.22;1.52;;;24.90;30.70;;;;;;5080566;28;20043;-56
2021/06/01 12:32:13;;;;;;;2.58;1.60;;;24.90;29.30;;;;;;5060968;28;20165;-56
2021/06/01 12:35:16;;;;;;;3.90;1.60;;;25.00;28.80;;;;;;5089428;28;20044;-54
2021/06/01 13:23:33;;;;;;;3.20;1.70;;;25.30;29.10;;;;;;5073910;28;20040;-57
2021/06/01 13:46:24;;;;;;;1.80;1.70;;;25.30;29.30;;;;;;5077648;28;20047;-53
2021/06/01 13:56:43;;;;;;;3.55;1.70;;;25.60;28.60;;;;;;5079372;28;20554;-56
2021/06/01 15:24:27;;;;;;;4.63;2.38;;;25.70;32.00;;;;;;5071954;28;20043;-56
2021/06/01 15:29:51;;;;;;;5.05;2.42;;;25.80;32.30;;;;;;5094731;28;20119;-54
2021/06/01 15:52:44;;;;;;;6.20;2.70;;;25.80;32.80;;;;;;5057968;28;20040;-56
2021/06/01 16:12:14;;;;;;;4.85;2.55;;;25.50;31.20;;;;;;5091600;28;20116;-57
2021/06/01 16:23:12;;;;;;;3.70;2.42;;;25.40;32.90;;;;;;5089972;28;20483;-55
2021/06/01 16:31:36;;;;;;;7.28;2.88;;;25.40;32.70;;;;;;5079801;28;21095;-54
2021/06/01 17:04:39;;;;;;;8.50;2.92;;;25.10;35.50;;;;;;5089071;28;21534;-53
2021/06/01 17:08:14;;;;;;;7.55;3.10;;;25.00;36.10;;;;;;5084838;28;20111;-55
2021/06/01 17:13:17;;;;;;;5.15;2.90;;;24.90;36.10;;;;;;5068931;28;20062;-56
2021/06/01 17:15:45;;;;;;;6.10;3.10;;;24.90;35.60;;;;;;5079035;28;20071;-57
2021/06/01 17:18:30;;;;;;;9.00;3.33;;;24.80;36.10;;;;;;5080255;28;20043;-57
2021/06/01 17:35:03;;;;;;;7.50;3.17;;;24.50;38.00;;;;;;5081233;28;20575;-55
2021/06/01 17:37:34;;;;;;;6.32;3.00;;;24.50;38.10;;;;;;5079359;28;20098;-56
2021/06/01 17:40:00;;;;;;;4.57;2.97;;;24.40;38.40;;;;;;5049963;28;20059;-56
2021/06/01 17:42:31;;;;;;;4.40;3.42;;;24.40;38.40;;;;;;5089270;28;20039;-56
2021/06/01 17:45:01;;;;;;;4.43;2.90;;;24.20;38.40;;;;;;5079482;28;20043;-56
2021/06/01 17:47:33;;;;;;;6.47;3.20;;;24.20;38.70;;;;;;5051651;28;20044;-56
2021/06/01 17:50:03;;;;;;;5.20;3.10;;;24.10;38.80;;;;;;5076764;28;20492;-57
2021/06/01 17:52:32;;;;;;;5.20;3.10;;;24.10;39.10;;;;;;5055735;28;20135;-57
2021/06/01 17:55:00;;;;;;;7.65;3.40;;;24.00;39.60;;;;;;5084927;28;20134;-55
2021/06/01 17:57:27;;;;;;;6.05;3.70;;;23.90;40.10;;;;;;5091590;28;20036;-54
2021/06/01 17:59:55;;;;;;;6.68;3.38;;;23.80;40.20;;;;;;5086398;28;20062;-55
2021/06/01 18:02:21;;;;;;;7.45;3.40;;;24.00;39.30;;;;;;5075224;28;20115;-57
2021/06/01 18:04:50;;;;;;;9.90;3.83;;;23.90;39.80;;;;;;5068938;28;20040;-56
2021/06/01 18:07:54;;;;;;;8.57;3.65;;;23.80;40.10;;;;;;5071375;28;20040;-57
2021/06/01 18:10:52;;;;;;;7.90;3.92;;;23.80;40.60;;;;;;5078708;28;20040;-57
2021/06/01 19:24:50;;;;;;;10.27;3.67;;;22.10;48.40;;;;;;5094152;28;20043;-55
2021/06/01 19:49:57;;;;;;;6.90;5.00;;;21.50;53.00;;;;;;5071838;28;20127;-56
2021/06/01 19:52:28;;;;;;;9.95;5.22;;;21.40;53.60;;;;;;5091768;28;20056;-56
2021/06/01 19:55:03;;;;;;;7.90;5.30;;;21.30;54.20;;;;;;5071467;28;20051;-57
2021/06/01 19:57:29;;;;;;;8.32;5.30;;;21.10;54.00;;;;;;5081495;28;20097;-56
2021/06/01 19:59:56;;;;;;;8.50;5.30;;;21.10;54.20;;;;;;5092758;28;20519;-52
2021/06/01 20:02:32;;;;;;;9.23;5.47;;;21.00;54.50;;;;;;5089552;28;20033;-53
2021/06/01 20:05:04;;;;;;;10.63;5.40;;;20.80;54.90;;;;;;5075837;28;20066;-55